Flight Track Log - Related Links

Times and Time Zones

All times are in EST time to prevent confusion due to time zone crossing. See the BOE236 flight status page for this flight to view local times or setup timezone preferences in your user account.

Time Position Orientation Groundspeed Altitude Reporting Facility
EST Latitude Longitude Course Direction KTS MPH feet Rate Location/Type
Sun 01:50:32 PM 36.1058 -115.1497 328° Northwest 160 184 3,600  Level Los Angeles Center
Sun 01:51:08 PM 36.1289 -115.1675 259° West 185 213 4,800 2,784 Climbing Los Angeles Center
Sun 01:52:09 PM 36.1150 -115.2525 232° Southwest 262 302 8,100 2,250 Climbing Los Angeles Center
Sun 01:53:00 PM 36.0842 -115.3014 203° Southwest 276 318 9,000 865 Climbing Los Angeles Center
Sun 01:54:00 PM 36.0092 -115.3408 203° Southwest 269 310 9,700 750 Climbing Los Angeles Center
Sun 01:55:00 PM 35.9281 -115.3825 234° Southwest 282 325 10,500 1,700 Climbing Los Angeles Center
Sun 01:56:00 PM 35.8744 -115.4728 279° West 322 371 13,100 2,850 Climbing Los Angeles Center
Sun 01:57:00 PM 35.8894 -115.5881 272° West 292 336 16,200 3,250 Climbing Los Angeles Center
Sun 01:58:00 PM 35.8922 -115.7111 271° West 348 400 19,600 3,100 Climbing Los Angeles Center
Sun 01:59:00 PM 35.8944 -115.8367 273° West 366 421 22,400 2,900 Climbing Los Angeles Center
Sun 02:00:00 PM 35.8989 -115.9622 311° West 366 421 25,400 2,550 Climbing Los Angeles Center
Sun 02:01:00 PM 35.9658 -116.0572 319° Northwest 355 409 27,500 1,950 Climbing Los Angeles Center
Sun 02:02:00 PM 36.0492 -116.1469 342° North 379 436 29,300 1,800 Climbing Los Angeles Center
Sun 02:03:00 PM 36.1514 -116.1881 27° Northeast 385 443 31,100 1,450 Climbing Los Angeles Center
Sun 02:04:00 PM 36.2536 -116.1239 83° East 416 479 32,200 950 Climbing Los Angeles Center
Sun 02:05:00 PM 36.2722 -115.9358 105° East 394 453 33,000 400 Climbing Los Angeles Center
Sun 02:06:00 PM 36.2344 -115.7633 108° East 450 518 33,000 250 Level Los Angeles Center
Sun 02:07:00 PM 36.1814 -115.5656 107° East 514 592 33,500 1,600 Climbing Los Angeles Center
Sun 02:08:00 PM 36.1347 -115.3808 105° East 543 625 36,200 1,800 Climbing Los Angeles Center
Sun 02:09:00 PM 36.0958 -115.2064 70° East 538 619 37,100 800 Climbing Los Angeles Center
Sun 02:10:00 PM 36.1444 -115.0361 53° Northeast 506 582 37,800 950 Climbing Los Angeles Center
Sun 02:11:00 PM 36.2328 -114.8906 53° Northeast 489 563 39,000 600 Climbing Los Angeles Center
Sun 02:12:00 PM 36.3189 -114.7475 54° Northeast 502 578 39,000  Level Los Angeles Center
Sun 02:13:00 PM 36.4047 -114.6017 55° Northeast 508 585 39,000  Level Los Angeles Center
Sun 02:14:00 PM 36.4864 -114.4581 54° Northeast 508 585 39,000  Level Los Angeles Center
Sun 02:15:00 PM 36.5700 -114.3142 53° Northeast 513 590 39,000  Level Los Angeles Center
Sun 02:16:01 PM 36.6472 -114.1881 54° Northeast 518 596 39,000  Level Los Angeles Center
Sun 02:17:00 PM 36.7283 -114.0461 56° Northeast 506 582 39,000  Level Los Angeles Center
Sun 02:18:00 PM 36.8150 -113.8831 53° Northeast 506 582 39,000  Level Los Angeles Center
Sun 02:19:00 PM 36.8900 -113.7592 55° Northeast 506 582 39,000  Level Los Angeles Center
Sun 02:20:48 PM 37.0408 -113.4856 55° Northeast 510 587 39,000  Level Salt Lake Center
Sun 02:21:50 PM 37.1231 -113.3375 55° Northeast 512 589 39,000  Level Salt Lake Center
Sun 02:22:52 PM 37.2050 -113.1897 55° Northeast 510 587 39,000  Level Salt Lake Center
Sun 02:23:54 PM 37.2869 -113.0419 56° Northeast 511 588 39,000  Level Salt Lake Center
Sun 02:24:56 PM 37.3672 -112.8944 55° Northeast 510 587 39,000  Level Salt Lake Center
Sun 02:25:58 PM 37.4492 -112.7464 56° Northeast 515 593 39,000  Level Salt Lake Center
Sun 02:27:00 PM 37.5469 -112.5656 56° Northeast 523 602 39,000  Level Salt Lake Center
Sun 02:28:02 PM 37.6292 -112.4142 72° East 522 601 39,000  Level Salt Lake Center
Sun 02:29:04 PM 37.6742 -112.2403 104° East 531 611 39,000  Level Salt Lake Center
Sun 02:30:06 PM 37.6381 -112.0544 105° East 541 623 39,000  Level Salt Lake Center
Sun 02:31:08 PM 37.6003 -111.8733 105° East 529 609 39,000  Level Salt Lake Center
Sun 02:32:10 PM 37.5622 -111.6908 105° East 529 609 39,000  Level Salt Lake Center
Sun 02:33:12 PM 37.5236 -111.5072 105° East 532 612 39,000  Level Salt Lake Center
Sun 02:34:14 PM 37.4856 -111.3253 106° East 531 611 39,000  Level Salt Lake Center
Sun 02:35:25 PM 37.4369 -111.1097 105° East 533 613 39,000  Level Denver Center
Sun 02:36:25 PM 37.4003 -110.9322 106° East 528 608 39,000  Level Denver Center
Sun 02:37:25 PM 37.3556 -110.7389 105° East 522 601 39,000  Level Denver Center
Sun 02:38:25 PM 37.3183 -110.5619 106° East 522 601 39,000  Level Denver Center
Sun 02:39:25 PM 37.2786 -110.3875 106° East 522 601 39,000  Level Denver Center
Sun 02:40:25 PM 37.2389 -110.2106 103° East 522 601 39,000  Level Denver Center
Sun 02:41:25 PM 37.2069 -110.0369 106° East 514 592 39,000  Level Denver Center
Sun 02:42:25 PM 37.1664 -109.8631 106° East 526 605 39,000  Level Denver Center
Sun 02:43:25 PM 37.1256 -109.6869 106° East 526 605 39,000  Level Denver Center
Sun 02:44:25 PM 37.0903 -109.5292 107° East 521 600 39,000  Level Denver Center
Sun 02:45:25 PM 37.0492 -109.3558 106° East 521 600 39,000  Level Denver Center
Sun 02:46:25 PM 37.0058 -109.1619 107° East 521 600 39,000  Level Denver Center
Sun 02:47:25 PM 36.9639 -108.9889 107° East 521 600 39,000  Level Denver Center
Sun 02:48:25 PM 36.9256 -108.8319 106° East 521 600 39,000  Level Denver Center
Sun 02:49:25 PM 36.8856 -108.6569 107° East 521 600 39,000  Level Denver Center
Sun 02:50:25 PM 36.8389 -108.4636 107° East 521 600 39,000  Level Denver Center
Sun 02:51:25 PM 36.7961 -108.2914 105° East 521 600 39,000  Level Denver Center
Sun 02:52:25 PM 36.7592 -108.1172 77° East 521 600 39,000  Level Denver Center
Sun 02:53:25 PM 36.7906 -107.9519 71° East 516 594 39,000  Level Denver Center
Sun 02:54:25 PM 36.8450 -107.7508 72° East 538 619 39,000  Level Denver Center
Sun 02:55:25 PM 36.8928 -107.5675 71° East 543 625 39,000  Level Denver Center
Sun 02:56:25 PM 36.9425 -107.3892 72° East 543 625 39,000  Level Denver Center
Sun 02:57:25 PM 36.9853 -107.2261 72° East 543 625 39,000  Level Denver Center
Sun 02:58:25 PM 37.0386 -107.0239 72° East 543 625 39,000  Level Denver Center
Sun 02:59:25 PM 37.0872 -106.8397 72° East 543 625 39,000  Level Denver Center
Sun 03:00:25 PM 37.1336 -106.6603 72° East 543 625 39,000  Level Denver Center
Sun 03:01:25 PM 37.1753 -106.4964 73° East 543 625 39,000  Level Denver Center
Sun 03:02:25 PM 37.2253 -106.2958 73° East 536 617 39,000  Level Denver Center
Sun 03:03:25 PM 37.2708 -106.1131 70° East 536 617 39,000  Level Denver Center
Sun 03:04:25 PM 37.3222 -105.9356 79° East 542 624 39,000  Level Denver Center
Sun 03:05:25 PM 37.3483 -105.7683 93° East 536 617 39,000  Level Denver Center
Sun 03:06:25 PM 37.3406 -105.5594 93° East 531 611 39,000  Level Denver Center
Sun 03:07:25 PM 37.3328 -105.3692 93° East 537 618 39,000  Level Denver Center
Sun 03:08:25 PM 37.3244 -105.1814 91° East 537 618 39,000  Level Denver Center
Sun 03:09:25 PM 37.3225 -105.0144 93° East 537 618 39,000  Level Denver Center
Sun 03:10:25 PM 37.3133 -104.8083 93° East 537 618 39,000  Level Denver Center
Sun 03:11:25 PM 37.3064 -104.6208 93° East 537 618 39,000 150 Level Denver Center
Sun 03:12:25 PM 37.2989 -104.4358 93° East 540 621 39,300 400 Climbing Denver Center
Sun 03:13:25 PM 37.2917 -104.2664 94° East 536 617 39,800 350 Climbing Denver Center
Sun 03:14:25 PM 37.2811 -104.0581 93° East 536 617 40,000 100 Climbing Denver Center
Sun 03:15:25 PM 37.2731 -103.8706 93° East 536 617 40,000  Level Denver Center
Sun 03:16:25 PM 37.2667 -103.6986 59° Northeast 536 617 40,000  Level Denver Center
Sun 03:17:25 PM 37.3500 -103.5206 39° Northeast 521 600 40,000  Level Denver Center
Sun 03:18:25 PM 37.4717 -103.3981 37° Northeast 514 592 40,000  Level Denver Center
Sun 03:19:25 PM 37.5856 -103.2911 38° Northeast 562 647 40,000  Level Denver Center
Sun 03:20:25 PM 37.7214 -103.1564 38° Northeast 568 654 40,000  Level Denver Center
Sun 03:21:25 PM 37.8450 -103.0350 37° Northeast 568 654 40,000  Level Denver Center
Sun 03:22:25 PM 37.9706 -102.9131 37° Northeast 568 654 40,000  Level Denver Center
Sun 03:23:25 PM 38.0817 -102.8047 North 574 661 40,000  Level Denver Center
Sun 03:24:25 PM 38.2400 -102.7967 321° Northwest 510 587 40,000  Level Denver Center
Sun 03:25:25 PM 38.3389 -102.8972 310° West 431 496 40,000  Level Denver Center
Sun 03:26:25 PM 38.4133 -103.0103 311° West 442 509 40,000  Level Denver Center
Sun 03:27:25 PM 38.4942 -103.1308 311° West 453 521 40,000  Level Denver Center
Sun 03:28:25 PM 38.5747 -103.2492 310° West 458 527 40,000  Level Denver Center
Sun 03:29:25 PM 38.6575 -103.3758 309° West 458 527 40,000  Level Denver Center
Sun 03:30:25 PM 38.7381 -103.5028 312° West 464 534 40,000  Level Denver Center
Sun 03:31:25 PM 38.8222 -103.6244 319° Northwest 464 534 40,000  Level Denver Center
Sun 03:32:25 PM 38.9294 -103.7456 318° Northwest 459 528 40,000  Level Denver Center
Sun 03:33:25 PM 39.0239 -103.8539 318° Northwest 466 536 40,000  Level Denver Center
Sun 03:34:25 PM 39.1222 -103.9681 320° Northwest 471 542 40,000  Level Denver Center
Sun 03:35:25 PM 39.2247 -104.0797 317° Northwest 477 549 40,000  Level Denver Center
Sun 03:36:25 PM 39.3208 -104.1944 318° Northwest 472 543 40,000  Level Denver Center
Sun 03:37:25 PM 39.4211 -104.3094 319° Northwest 477 549 40,000  Level Denver Center
Sun 03:38:25 PM 39.5169 -104.4167 316° Northwest 469 540 40,000  Level Denver Center
Sun 03:39:25 PM 39.6150 -104.5378 313° West 474 545 40,000  Level Denver Center
Sun 03:40:25 PM 39.7025 -104.6594 303° West 474 545 40,000  Level Denver Center
Sun 03:41:25 PM 39.7714 -104.7983 300° West 466 536 40,000  Level Denver Center
Sun 03:42:25 PM 39.8358 -104.9428 301° West 466 536 40,000  Level Denver Center
Sun 03:43:25 PM 39.9022 -105.0875 300° West 461 531 40,000  Level Denver Center
Sun 03:44:25 PM 39.9686 -105.2350 300° West 461 531 40,000  Level Denver Center
Sun 03:45:25 PM 40.0325 -105.3803 301° West 461 531 40,000  Level Denver Center
Sun 03:46:25 PM 40.0922 -105.5125 300° West 466 536 40,000  Level Denver Center
Sun 03:47:25 PM 40.1558 -105.6583 300° West 466 536 40,000  Level Denver Center
Sun 03:48:25 PM 40.2194 -105.8017 300° West 460 529 40,000  Level Denver Center
Sun 03:49:25 PM 40.2847 -105.9506 301° West 465 535 40,000  Level Denver Center
Sun 03:50:25 PM 40.3519 -106.0972 301° West 465 535 40,000  Level Denver Center
Sun 03:51:25 PM 40.4253 -106.2550 300° West 471 542 40,000  Level Denver Center
Sun 03:52:25 PM 40.4922 -106.4078 298° West 466 536 40,000  Level Denver Center
Sun 03:53:25 PM 40.5486 -106.5472 299° West 477 549 40,000  Level Denver Center
Sun 03:54:25 PM 40.6131 -106.6978 300° West 477 549 40,000  Level Denver Center
Sun 03:55:25 PM 40.6792 -106.8486 300° West 477 549 40,000  Level Denver Center
Sun 03:56:25 PM 40.7453 -107.0022 301° West 482 555 40,000  Level Denver Center
Sun 03:57:25 PM 40.8114 -107.1456 300° West 467 537 40,000  Level Denver Center
Sun 03:58:25 PM 40.8750 -107.2917 299° West 467 537 40,000  Level Denver Center
Sun 03:59:25 PM 40.9444 -107.4603 300° West 472 543 40,000  Level Denver Center
Sun 04:00:25 PM 41.0100 -107.6128 299° West 472 543 40,000  Level Denver Center
Sun 04:01:25 PM 41.0689 -107.7514 298° West 472 543 40,000  Level Denver Center
Sun 04:02:10 PM 41.1192 -107.8758 300° West 474 545 40,000  Level Salt Lake Center
Sun 04:03:12 PM 41.1808 -108.0206 299° West 472 543 40,000  Level Salt Lake Center
Sun 04:04:13 PM 41.2519 -108.1925 299° West 475 547 40,000  Level Salt Lake Center
Sun 04:05:15 PM 41.3133 -108.3394 299° West 476 548 40,000  Level Salt Lake Center
Sun 04:06:17 PM 41.3844 -108.5117 298° West 477 549 40,000  Level Salt Lake Center
Sun 04:07:19 PM 41.4439 -108.6581 298° West 474 545 40,000  Level Salt Lake Center
Sun 04:08:21 PM 41.5119 -108.8289 302° West 472 543 40,000  Level Salt Lake Center
Sun 04:09:23 PM 41.5769 -108.9661 346° North 471 542 40,000  Level Salt Lake Center
Sun 04:10:27 PM 41.7194 -109.0142 360° North 498 573 40,000  Level Salt Lake Center
Sun 04:11:26 PM 41.8522 -109.0131 North 499 574 40,000  Level Salt Lake Center
Sun 04:12:28 PM 42.0083 -109.0106 360° North 502 578 40,000  Level Salt Lake Center
Sun 04:13:30 PM 42.1422 -109.0092 North 502 578 40,000  Level Salt Lake Center
Sun 04:14:32 PM 42.2975 -109.0072 North 501 577 40,000  Level Salt Lake Center
Sun 04:15:34 PM 42.4308 -109.0047 360° North 501 577 40,000  Level Salt Lake Center
Sun 04:16:35 PM 42.5642 -109.0033 North 501 577 40,000  Level Salt Lake Center
Sun 04:17:37 PM 42.7211 -109.0011 North 503 579 40,000  Level Salt Lake Center
Sun 04:18:39 PM 42.8550 -108.9983 North 503 579 40,000  Level Salt Lake Center
Sun 04:19:41 PM 43.0103 -108.9953 North 503 579 40,000  Level Salt Lake Center
Sun 04:20:42 PM 43.1444 -108.9931 North 503 579 40,000  Level Salt Lake Center
Sun 04:21:44 PM 43.3019 -108.9908 North 505 581 40,000  Level Salt Lake Center
Sun 04:22:46 PM 43.4381 -108.9869 North 507 583 40,000  Level Salt Lake Center
Sun 04:23:48 PM 43.5953 -108.9850 North 507 583 40,000  Level Salt Lake Center
Sun 04:24:50 PM 43.7297 -108.9828 North 504 580 40,000  Level Salt Lake Center
Sun 04:25:52 PM 43.8647 -108.9811 North 505 581 40,000  Level Salt Lake Center
Sun 04:26:53 PM 44.0228 -108.9769 North 506 582 40,000  Level Salt Lake Center
Sun 04:27:55 PM 44.1583 -108.9753 North 507 583 40,000  Level Salt Lake Center
Sun 04:28:57 PM 44.3153 -108.9733 North 504 580 40,000  Level Salt Lake Center
Sun 04:29:59 PM 44.4475 -108.9697 359° North 498 573 40,000  Level Salt Lake Center
Sun 04:31:01 PM 44.6022 -108.9725 323° Northwest 496 571 40,000  Level Salt Lake Center
Sun 04:32:03 PM 44.7044 -109.0803 317° Northwest 492 566 40,000  Level Salt Lake Center
Sun 04:33:04 PM 44.7994 -109.2050 317° Northwest 488 562 40,000  Level Salt Lake Center
Sun 04:34:06 PM 44.9092 -109.3514 317° Northwest 485 558 40,000  Level Salt Lake Center
Sun 04:35:08 PM 45.0033 -109.4775 317° Northwest 485 558 40,000  Level Salt Lake Center
Sun 04:36:10 PM 45.1150 -109.6256 317° Northwest 489 563 40,000  Level Salt Lake Center
Sun 04:37:12 PM 45.2103 -109.7528 316° Northwest 491 565 40,000  Level Salt Lake Center
Sun 04:38:14 PM 45.3169 -109.9003 317° Northwest 482 555 40,000  Level Salt Lake Center
Sun 04:39:16 PM 45.4097 -110.0250 316° Northwest 480 552 40,000  Level Salt Lake Center
Sun 04:40:17 PM 45.5011 -110.1506 316° Northwest 478 550 40,000  Level Salt Lake Center
Sun 04:41:19 PM 45.6072 -110.2972 315° West 475 547 40,000  Level Salt Lake Center
Sun 04:42:21 PM 45.6975 -110.4247 316° Northwest 476 548 40,000  Level Salt Lake Center
Sun 04:43:23 PM 45.8031 -110.5722 317° Northwest 475 547 40,000  Level Salt Lake Center
Sun 04:44:25 PM 45.8900 -110.6903 315° West 475 547 40,000  Level Salt Lake Center
Sun 04:45:27 PM 46.0025 -110.8500 315° West 480 552 40,000  Level Salt Lake Center
Sun 04:46:28 PM 46.0961 -110.9831 315° West 479 551 40,000  Level Salt Lake Center
Sun 04:47:30 PM 46.1894 -111.1158 315° West 477 549 40,000  Level Salt Lake Center
Sun 04:48:32 PM 46.2831 -111.2500 315° West 477 549 40,000  Level Salt Lake Center
Sun 04:49:34 PM 46.3747 -111.3844 315° West 474 545 40,000 -48 Level Salt Lake Center
Sun 04:50:36 PM 46.4689 -111.5194 316° Northwest 473 544 39,900 -48 Descending Salt Lake Center
Sun 04:51:38 PM 46.5622 -111.6528 315° West 472 543 39,900 48 Level Salt Lake Center
Sun 04:52:40 PM 46.6747 -111.8167 315° West 475 547 40,000 49 Climbing Salt Lake Center
Sun 04:53:41 PM 46.7689 -111.9533 315° West 476 548 40,000 -49 Level Salt Lake Center
Sun 04:54:43 PM 46.8633 -112.0933 315° West 480 552 39,900  Descending Salt Lake Center
Sun 04:55:45 PM 46.9567 -112.2322 314° West 480 552 40,000  Climbing Salt Lake Center
Sun 04:56:47 PM 47.0500 -112.3728 315° West 479 551 39,900 -48 Descending Salt Lake Center
Sun 04:57:49 PM 47.1422 -112.5092 314° West 474 545 39,900 48 Level Salt Lake Center
Sun 04:58:51 PM 47.2333 -112.6483 314° West 473 544 40,000  Climbing Salt Lake Center
Sun 04:59:52 PM 47.3242 -112.7875 314° West 471 542 39,900 -49 Descending Salt Lake Center
Sun 05:00:54 PM 47.4250 -112.9433 314° West 477 549 39,900 48 Level Salt Lake Center
Sun 05:01:56 PM 47.5172 -113.0836 315° West 478 550 40,000 48 Climbing Salt Lake Center
Sun 05:02:58 PM 47.6097 -113.2219 313° West 477 549 40,000  Level Salt Lake Center
Sun 05:04:00 PM 47.7158 -113.3903 314° West 470 541 40,000  Level Salt Lake Center
Sun 05:05:02 PM 47.8061 -113.5300 314° West 470 541 40,000  Level Salt Lake Center
Sun 05:06:03 PM 47.8947 -113.6686 313° West 468 539 40,000 -49 Level Salt Lake Center
Sun 05:07:05 PM 47.9817 -113.8058 313° West 462 532 39,900 -48 Descending Salt Lake Center
Sun 05:08:07 PM 48.0681 -113.9433 313° West 460 529 39,900  Level Salt Lake Center
Sun 05:09:09 PM 48.1711 -114.1100 281° West 462 532 39,900 48 Level Salt Lake Center
Sun 05:10:11 PM 48.1939 -114.2894 255° West 462 532 40,000 49 Climbing Salt Lake Center
Sun 05:11:12 PM 48.1603 -114.4736 256° West 469 540 40,000 -49 Level Salt Lake Center
Sun 05:12:14 PM 48.1289 -114.6631 255° West 475 547 39,900  Descending Salt Lake Center
Sun 05:13:16 PM 48.0958 -114.8508 255° West 475 547 40,000 57 Climbing Salt Lake Center
Sun 05:14:00 PM 48.0697 -114.9975 255° West 468 539 40,000 -57 Level Seattle Center
Sun 05:15:01 PM 48.0375 -115.1736 255° West 449 517 39,900 -49 Descending Seattle Center
Sun 05:16:02 PM 47.9989 -115.3819 255° West 450 518 39,900 49 Level Seattle Center
Sun 05:17:03 PM 47.9656 -115.5614 255° West 450 518 40,000 49 Climbing Seattle Center
Sun 05:18:04 PM 47.9328 -115.7375 254° West 446 513 40,000 -49 Level Seattle Center
Sun 05:19:05 PM 47.8992 -115.9144 254° West 446 513 39,900 -49 Descending Seattle Center
Sun 05:20:06 PM 47.8658 -116.0894 254° West 442 509 39,900  Level Seattle Center
Sun 05:21:07 PM 47.8328 -116.2628 254° West 439 505 39,900  Level Seattle Center
Sun 05:22:08 PM 47.7994 -116.4372 254° West 440 506 39,900  Level Seattle Center
Sun 05:23:09 PM 47.7667 -116.6119 254° West 440 506 39,900  Level Seattle Center
Sun 05:24:10 PM 47.7319 -116.7867 254° West 443 510 39,900 49 Level Seattle Center
Sun 05:25:11 PM 47.6978 -116.9619 253° West 446 513 40,000 49 Climbing Seattle Center
Sun 05:26:12 PM 47.6608 -117.1453 254° West 444 511 40,000 -49 Level Seattle Center
Sun 05:27:13 PM 47.6236 -117.3350 253° West 443 510 39,900  Descending Seattle Center
Sun 05:28:14 PM 47.5892 -117.5067 237° Southwest 440 506 40,000 49 Climbing Seattle Center
Sun 05:29:15 PM 47.5242 -117.6561 206° Southwest 456 525 40,000  Level Seattle Center
Sun 05:30:16 PM 47.4078 -117.7408 206° Southwest 472 543 40,000 -50 Level Seattle Center
Sun 05:31:16 PM 47.2911 -117.8256 206° Southwest 472 543 39,900  Descending Seattle Center
Sun 05:32:17 PM 47.1725 -117.9097 206° Southwest 474 545 40,000 49 Climbing Seattle Center
Sun 05:33:18 PM 47.0542 -117.9950 206° Southwest 476 548 40,000  Level Seattle Center
Sun 05:34:19 PM 46.9125 -118.0981 206° Southwest 476 548 40,000  Level Seattle Center
Sun 05:35:20 PM 46.7925 -118.1825 206° Southwest 479 551 40,000 -49 Level Seattle Center
Sun 05:36:21 PM 46.6731 -118.2678 206° Southwest 480 552 39,900 -49 Descending Seattle Center
Sun 05:37:22 PM 46.5517 -118.3531 205° Southwest 484 557 39,900 49 Level Seattle Center
Sun 05:38:23 PM 46.4306 -118.4364 206° Southwest 484 557 40,000  Climbing Seattle Center
Sun 05:39:24 PM 46.3100 -118.5200 205° Southwest 483 556 39,900  Descending Seattle Center
Sun 05:40:25 PM 46.1844 -118.6064 206° Southwest 485 558 40,000 49 Climbing Seattle Center
Sun 05:41:26 PM 46.0642 -118.6908 205° Southwest 483 556 40,000  Level Seattle Center
Sun 05:42:27 PM 45.9428 -118.7728 226° Southwest 484 557 40,000  Level Seattle Center
Sun 05:43:28 PM 45.8572 -118.9003 276° West 457 526 40,000  Level Seattle Center
Sun 05:44:28 PM 45.8689 -119.0600 326° Northwest 417 480 40,000  Level Seattle Center
Sun 05:45:29 PM 45.9572 -119.1456 14° North 396 456 40,000  Level Seattle Center
Sun 05:46:30 PM 46.0864 -119.0986 10° North 418 481 40,000  Level Seattle Center
Sun 05:47:31 PM 46.1953 -119.0717 350° North 413 475 40,000  Level Seattle Center
Sun 05:48:32 PM 46.3053 -119.0989 350° North 403 464 40,000  Level Seattle Center
Sun 05:49:33 PM 46.4158 -119.1267 350° North 404 465 40,000  Level Seattle Center
Sun 05:50:34 PM 46.5272 -119.1561 349° North 407 468 40,000  Level Seattle Center
Sun 05:51:35 PM 46.6389 -119.1867 350° North 410 472 40,000  Level Seattle Center
Sun 05:52:36 PM 46.7503 -119.2164 350° North 410 472 40,000 -49 Level Seattle Center
Sun 05:53:37 PM 46.8661 -119.2475 349° North 409 471 39,900 -49 Descending Seattle Center
Sun 05:54:38 PM 46.9781 -119.2783 350° North 409 471 39,900 49 Level Seattle Center
Sun 05:55:39 PM 47.0894 -119.3081 350° North 408 470 40,000 49 Climbing Seattle Center
Sun 05:56:40 PM 47.2006 -119.3381 349° North 407 468 40,000  Level Seattle Center
Sun 05:57:41 PM 47.3111 -119.3686 349° North 405 466 40,000  Level Seattle Center
Sun 05:58:42 PM 47.4211 -119.3994 350° North 403 464 40,000 -49 Level Seattle Center
Sun 05:59:43 PM 47.5331 -119.4297 349° North 406 467 39,900 -197 Descending Seattle Center
Sun 06:00:44 PM 47.6450 -119.4619 316° Northwest 408 470 39,600 -1,574 Descending Seattle Center
Sun 06:01:45 PM 47.7358 -119.5914 278° West 404 465 36,700 -2,656 Descending Seattle Center
Sun 06:02:46 PM 47.7506 -119.7556 276° West 402 463 34,200 -2,656 Descending Seattle Center
Sun 06:03:47 PM 47.7614 -119.9125 277° West 386 444 31,300 -2,607 Descending Seattle Center
Sun 06:04:48 PM 47.7739 -120.0564 276° West 356 410 28,900 -1,967 Descending Seattle Center
Sun 06:05:49 PM 47.7839 -120.2042 276° West 360 414 27,300 -1,574 Descending Seattle Center
Sun 06:06:50 PM 47.7939 -120.3464 277° West 350 403 25,700 -1,525 Descending Seattle Center
Sun 06:07:51 PM 47.8047 -120.4817 276° West 334 384 24,200 -1,426 Descending Seattle Center
Sun 06:08:52 PM 47.8133 -120.6142 276° West 326 375 22,800 -1,426 Descending Seattle Center
Sun 06:09:53 PM 47.8225 -120.7469 277° West 323 372 21,300 -1,525 Descending Seattle Center
Sun 06:10:54 PM 47.8336 -120.8894 276° West 316 364 19,700 -1,574 Descending Seattle Center
Sun 06:11:55 PM 47.8428 -121.0164 276° West 313 360 18,100 -1,426 Descending Seattle Center
Sun 06:12:56 PM 47.8514 -121.1456 276° West 316 364 16,800 -1,605 Descending Seattle Center
Sun 06:13:21 PM 47.8558 -121.2117 275° West 314 361 15,800 -1,672 Descending Seattle Center
Sun 06:13:57 PM 47.8594 -121.2733 276° West 315 362 15,100 -1,341 Descending Seattle Center
Sun 06:14:46 PM 47.8672 -121.3911 273° West 312 359 13,900 -1,279 Descending Seattle Center
Sun 06:14:58 PM 47.8675 -121.4003 275° West 313 360 13,800 -1,343 Descending Seattle Center
Sun 06:15:53 PM 47.8750 -121.5325 85° East 301 346 12,400 -1,279 Descending Seattle Center
Sun 06:15:59 PM 47.8756 -121.5231 276° West 305 351 12,500 -1,075 Climbing Seattle Center
Sun 06:17:00 PM 47.8850 -121.6661 90° East 291 335 11,200 -1,279 Descending Seattle Center
Sun 06:17:00 PM 47.8850 -121.6647 239° Southwest 294 338 11,200 -1,377 Level Seattle Center
Sun 06:18:01 PM 47.8481 -121.7567 90° East 274 315 9,800 -1,377 Descending Seattle Center
Sun 06:18:01 PM 47.8481 -121.7547 246° West 279 321 9,800 -2,000 Level Seattle Center
Sun 06:19:01 PM 47.8178 -121.8564 74° East 257 296 7,800 -1,869 Descending Seattle Center
Sun 06:19:02 PM 47.8189 -121.8506 258° West 260 299 7,900 -2,459 Climbing Seattle Center
Sun 06:20:02 PM 47.8036 -121.9572 71° East 244 281 5,300 -2,361 Descending Seattle Center
Sun 06:20:03 PM 47.8056 -121.9489 259° West 248 285 5,500 -2,164 Climbing Seattle Center
Sun 06:21:03 PM 47.7922 -122.0528 360° North 238 274 3,100 -2,361 Descending Seattle Center
Sun 06:21:04 PM 47.7922 -122.0528 258° West 239 275 3,100 -327 Level Seattle Center
Sun 06:21:58 PM 47.7794 -122.1422 279° West 242 278 2,800 -295 Descending Seattle Center
Sun 06:22:05 PM 47.7803 -122.1503 259° West 240 276 2,800 -590 Level Seattle Center
Sun 06:22:59 PM 47.7689 -122.2406 265° West 235 270 2,200 -590 Descending Seattle Center
Sun 06:23:06 PM 47.7681 -122.2536 254° West 238 274 2,200  Level Seattle Center
Sun 06:24:06 PM 47.7528 -122.3353 246° West 219 252 2,200  Level Seattle Center
Sun 06:24:07 PM 47.7508 -122.3417 229° Southwest 225 259 2,200  Level Seattle Center
Sun 06:25:06 PM 47.7161 -122.4017 259° West 212 244 2,200  Level Seattle Center
Sun 06:25:08 PM 47.7158 -122.4039 204° Southwest 199 229 2,200  Level Seattle Center
Sun 06:26:07 PM 47.6708 -122.4333 67° East 184 212 2,200  Level Seattle Center
Sun 06:26:09 PM 47.6714 -122.4314 144° Southeast 177 204 2,200  Level Seattle Center
Sun 06:27:02 PM 47.6361 -122.3933 155° Southeast 170 196 2,200  Level Seattle Center
Sun 06:27:10 PM 47.6325 -122.3908 150° Southeast 169 194 2,200 -783 Level Seattle Center
Sun 06:28:11 PM 47.5947 -122.3581 150° Southeast 148 170 1,300 -796 Descending Seattle Center
Sun 06:29:03 PM 47.5708 -122.3372 154° Southeast 129 148 700 -689 Descending Seattle Center
Sun 06:29:12 PM 47.5647 -122.3328 154° Southeast 129 148 600 -667 Descending Seattle Center

Login

Don't have an account? Register now (free) for customized features, flight alerts, and more!